createdAt,value
2022-11-18T00:01:28.976Z,12.20
2022-11-18T00:03:55.983Z,12.30
2022-11-18T00:06:25.640Z,12.20
2022-11-18T00:08:55.099Z,12.20
2022-11-18T00:11:43.003Z,12.10
2022-11-18T00:14:24.783Z,12.10
2022-11-18T00:16:55.824Z,12.10
2022-11-18T00:19:28.601Z,12.10
2022-11-18T00:21:56.407Z,12.10
2022-11-18T00:24:23.874Z,12.10
2022-11-18T00:26:50.951Z,12.10
2022-11-18T00:29:18.587Z,12.10
2022-11-18T00:31:45.703Z,12.10
2022-11-18T00:34:14.705Z,12.10
2022-11-18T00:36:42.579Z,12.00
2022-11-18T00:39:12.053Z,12.00
2022-11-18T00:41:57.339Z,12.10
2022-11-18T00:44:24.321Z,12.00
2022-11-18T00:46:51.137Z,12.00
2022-11-18T00:49:18.089Z,12.00
2022-11-18T00:51:45.172Z,12.00
2022-11-18T00:54:12.513Z,12.00
2022-11-18T00:56:39.256Z,12.00
2022-11-18T00:59:06.058Z,12.00
2022-11-18T01:01:33.005Z,12.00
2022-11-18T01:04:00.461Z,12.00
2022-11-18T01:06:27.301Z,12.10
2022-11-18T01:08:54.089Z,12.00
2022-11-18T01:11:39.349Z,12.10
2022-11-18T01:14:06.178Z,12.00
2022-11-18T01:16:32.994Z,12.00
2022-11-18T01:18:59.775Z,12.10
2022-11-18T01:21:26.586Z,11.90
2022-11-18T01:23:53.888Z,11.90
2022-11-18T01:26:20.808Z,12.00
2022-11-18T01:28:47.568Z,11.90
2022-11-18T01:31:17.128Z,12.00
2022-11-18T01:33:45.199Z,11.90
2022-11-18T01:36:27.510Z,11.90
2022-11-18T01:38:55.112Z,11.90
2022-11-18T01:41:25.093Z,12.00
2022-11-18T01:43:53.825Z,12.00
2022-11-18T01:46:23.332Z,12.00
2022-11-18T01:49:00.987Z,12.00
2022-11-18T01:51:33.551Z,12.10
2022-11-18T01:54:07.074Z,12.20
2022-11-18T01:56:41.581Z,12.20
2022-11-18T01:59:13.436Z,12.20
2022-11-18T02:01:40.956Z,12.20
2022-11-18T02:04:08.887Z,12.10
2022-11-18T02:06:36.409Z,12.10
2022-11-18T02:09:04.238Z,12.10
2022-11-18T02:11:50.163Z,12.10
2022-11-18T02:14:19.784Z,12.00
2022-11-18T02:17:07.463Z,12.00
2022-11-18T02:19:46.258Z,12.00
2022-11-18T02:23:00.344Z,12.00
2022-11-18T02:25:45.479Z,12.00
2022-11-18T02:28:49.665Z,12.00
2022-11-18T02:31:26.646Z,12.00
2022-11-18T02:33:59.665Z,12.00
2022-11-18T02:36:39.251Z,12.00
2022-11-18T02:39:10.668Z,12.00
2022-11-18T02:41:41.394Z,11.90
2022-11-18T02:44:17.770Z,12.10
2022-11-18T02:46:53.016Z,12.00
2022-11-18T02:49:31.640Z,12.00
2022-11-18T02:51:59.686Z,12.10
2022-11-18T02:54:28.848Z,12.00
2022-11-18T02:56:55.836Z,12.10
2022-11-18T02:59:22.693Z,12.00
2022-11-18T03:01:49.720Z,12.10
2022-11-18T03:04:18.096Z,12.10
2022-11-18T03:07:00.748Z,12.20
2022-11-18T03:09:33.657Z,12.20
2022-11-18T03:12:51.656Z,12.30
2022-11-18T03:15:44.304Z,12.20
2022-11-18T03:18:32.616Z,12.30
2022-11-18T03:21:08.084Z,12.30
2022-11-18T03:23:51.939Z,12.30
2022-11-18T03:26:31.764Z,12.30
2022-11-18T03:29:06.583Z,12.30
2022-11-18T03:31:47.160Z,12.40
2022-11-18T03:34:20.317Z,12.40
2022-11-18T03:36:52.099Z,12.40
2022-11-18T03:39:22.391Z,12.40
2022-11-18T03:41:57.725Z,12.30
2022-11-18T03:44:29.216Z,12.30
2022-11-18T03:47:02.496Z,12.30
2022-11-18T03:49:35.905Z,12.30
2022-11-18T03:52:10.542Z,12.30
2022-11-18T03:54:40.328Z,12.30
2022-11-18T03:57:17.023Z,12.30
2022-11-18T04:00:05.684Z,12.30
2022-11-18T04:02:32.627Z,12.30
2022-11-18T04:05:02.826Z,12.40
2022-11-18T04:07:55.376Z,12.30
2022-11-18T04:10:35.184Z,12.30
2022-11-18T04:13:17.381Z,12.20
2022-11-18T04:15:44.442Z,12.20
2022-11-18T04:18:11.822Z,12.20
2022-11-18T04:20:39.061Z,12.20
2022-11-18T04:23:07.454Z,12.20
2022-11-18T04:25:34.883Z,12.20
2022-11-18T04:28:01.825Z,12.20
2022-11-18T04:30:29.064Z,12.20
2022-11-18T04:32:55.839Z,12.20
2022-11-18T04:35:22.684Z,12.10
2022-11-18T04:37:49.614Z,12.20
2022-11-18T04:40:16.959Z,12.10
2022-11-18T04:42:43.769Z,12.20
2022-11-18T04:45:11.021Z,12.30
2022-11-18T04:47:38.597Z,12.10
2022-11-18T04:50:05.869Z,12.10
2022-11-18T04:52:32.682Z,12.10
2022-11-18T04:54:59.509Z,12.10
2022-11-18T04:57:26.405Z,12.10
2022-11-18T04:59:53.225Z,12.10
2022-11-18T05:02:20.001Z,12.10
2022-11-18T05:04:46.875Z,12.10
2022-11-18T05:07:14.972Z,12.20
2022-11-18T05:09:41.780Z,12.20
2022-11-18T05:12:32.849Z,12.30
2022-11-18T05:14:59.974Z,12.10
2022-11-18T05:17:26.813Z,12.10
2022-11-18T05:19:53.764Z,12.10
2022-11-18T05:22:20.600Z,12.10
2022-11-18T05:24:47.703Z,12.00
2022-11-18T05:27:15.594Z,12.10
2022-11-18T05:29:42.476Z,12.10
2022-11-18T05:32:09.584Z,12.10
2022-11-18T05:34:36.438Z,12.10
2022-11-18T05:37:03.455Z,12.10
2022-11-18T05:39:31.409Z,12.00
2022-11-18T05:42:16.675Z,12.00
2022-11-18T05:44:43.439Z,12.00
2022-11-18T05:47:10.517Z,12.00
2022-11-18T05:49:37.264Z,11.90
2022-11-18T05:52:04.328Z,11.90
2022-11-18T05:54:32.228Z,12.00
2022-11-18T05:56:59.084Z,12.00
2022-11-18T05:59:25.832Z,11.90
2022-11-18T06:02:03.122Z,11.90
2022-11-18T06:04:33.411Z,11.90
2022-11-18T06:07:20.867Z,11.90
2022-11-18T06:09:51.917Z,11.80
2022-11-18T06:12:23.525Z,11.80
2022-11-18T06:14:55.534Z,11.80
2022-11-18T06:17:31.672Z,11.80
2022-11-18T06:19:59.373Z,11.80
2022-11-18T06:22:26.504Z,11.80
2022-11-18T06:24:53.558Z,11.80
2022-11-18T06:27:21.123Z,11.80
2022-11-18T06:29:47.868Z,11.80
2022-11-18T06:32:14.680Z,11.80
2022-11-18T06:34:42.096Z,11.80
2022-11-18T06:37:13.927Z,11.90
2022-11-18T06:39:41.102Z,11.70
2022-11-18T06:42:08.058Z,11.70
2022-11-18T06:44:34.903Z,11.70
2022-11-18T06:47:02.573Z,11.70
2022-11-18T06:49:29.345Z,11.70
2022-11-18T06:51:56.159Z,11.80
2022-11-18T06:54:22.970Z,11.60
2022-11-18T06:56:49.829Z,11.60
2022-11-18T06:59:22.184Z,11.60
2022-11-18T07:01:49.073Z,11.60
2022-11-18T07:04:15.892Z,11.60
2022-11-18T07:06:42.673Z,11.60
2022-11-18T07:09:09.454Z,11.60
2022-11-18T07:11:38.218Z,11.60
2022-11-18T07:14:05.054Z,11.60
2022-11-18T07:16:34.133Z,11.60
2022-11-18T07:19:00.944Z,11.60
2022-11-18T07:21:29.442Z,11.70
2022-11-18T07:23:57.304Z,11.60
2022-11-18T07:26:24.972Z,11.70
2022-11-18T07:28:51.739Z,11.70
2022-11-18T07:31:20.466Z,11.70
2022-11-18T07:33:48.512Z,11.70
2022-11-18T07:36:20.987Z,11.70
2022-11-18T07:38:48.293Z,11.70
2022-11-18T07:41:19.332Z,11.70
2022-11-18T07:43:47.371Z,11.70
2022-11-18T07:46:33.764Z,11.80
2022-11-18T07:49:02.549Z,11.80
2022-11-18T07:51:32.832Z,11.90
2022-11-18T07:53:59.663Z,11.90
2022-11-18T07:56:26.722Z,11.90
2022-11-18T07:58:54.690Z,12.00
2022-11-18T08:01:23.956Z,12.10
2022-11-18T08:03:51.143Z,12.00
2022-11-18T08:06:19.688Z,12.10
2022-11-18T08:08:47.445Z,12.10
2022-11-18T08:11:21.908Z,12.20
2022-11-18T08:13:50.124Z,12.30
2022-11-18T08:16:19.439Z,12.40
2022-11-18T08:18:47.186Z,12.30
2022-11-18T08:21:16.109Z,12.40
2022-11-18T08:23:43.076Z,12.50
2022-11-18T08:26:16.078Z,12.50
2022-11-18T08:28:43.617Z,12.60
2022-11-18T08:31:12.905Z,12.60
2022-11-18T08:33:39.871Z,12.60
2022-11-18T08:36:14.595Z,12.70
2022-11-18T08:38:41.473Z,12.60
2022-11-18T08:41:11.032Z,12.80
2022-11-18T08:43:37.926Z,12.60
2022-11-18T08:46:04.872Z,12.70
2022-11-18T08:48:31.637Z,12.80
2022-11-18T08:50:59.417Z,12.80
2022-11-18T08:53:26.337Z,12.80
2022-11-18T08:56:00.820Z,12.90
2022-11-18T08:58:27.917Z,12.80
2022-11-18T09:00:54.985Z,12.80
2022-11-18T09:03:22.596Z,12.80
2022-11-18T09:05:50.049Z,12.90
2022-11-18T09:08:17.147Z,13.00
2022-11-18T09:10:43.921Z,13.10
2022-11-18T09:13:47.820Z,13.20
2022-11-18T09:16:01.844Z,13.20
2022-11-18T09:18:29.042Z,13.30
2022-11-18T09:21:14.135Z,13.40
2022-11-18T09:23:41.007Z,13.50
2022-11-18T09:26:14.129Z,13.50
2022-11-18T09:28:41.798Z,13.60
2022-11-18T09:31:13.875Z,13.60
2022-11-18T09:33:41.185Z,13.70
2022-11-18T09:36:20.008Z,13.80
2022-11-18T09:38:51.669Z,13.90
2022-11-18T09:41:25.733Z,13.90
2022-11-18T09:44:00.609Z,13.80
2022-11-18T09:46:46.156Z,13.70
2022-11-18T09:49:25.832Z,13.60
2022-11-18T09:51:54.208Z,13.50
2022-11-18T09:54:27.712Z,13.50
2022-11-18T09:56:56.230Z,13.50
2022-11-18T09:59:27.387Z,13.40
2022-11-18T10:02:17.499Z,13.40
2022-11-18T10:04:44.428Z,13.30
2022-11-18T10:07:43.261Z,13.30
2022-11-18T10:10:17.159Z,13.30
2022-11-18T10:13:01.812Z,13.30
2022-11-18T10:15:51.377Z,13.20
2022-11-18T10:21:38.001Z,13.40
2022-11-18T10:24:26.667Z,13.60
2022-11-18T10:26:58.475Z,13.80
2022-11-18T10:29:26.185Z,14.00
2022-11-18T10:32:05.506Z,14.10
2022-11-18T10:34:34.446Z,14.40
2022-11-18T10:37:07.470Z,14.70
2022-11-18T10:39:47.982Z,14.80
2022-11-18T10:42:39.031Z,15.00
2022-11-18T10:45:26.536Z,15.00
2022-11-18T10:48:19.828Z,15.20
2022-11-18T10:50:55.264Z,15.30
2022-11-18T10:53:41.824Z,15.40
2022-11-18T10:56:11.420Z,15.50
2022-11-18T10:58:47.743Z,15.60
2022-11-18T11:01:20.636Z,15.50
2022-11-18T11:04:22.391Z,15.60
2022-11-18T11:06:49.140Z,15.70
2022-11-18T11:09:15.813Z,15.80
2022-11-18T11:12:16.808Z,15.70
2022-11-18T11:14:51.608Z,15.60
2022-11-18T11:17:35.968Z,15.60
2022-11-18T11:20:19.660Z,15.50
2022-11-18T11:22:46.890Z,15.60
2022-11-18T11:29:14.136Z,15.70
2022-11-18T11:31:48.845Z,15.60
2022-11-18T11:34:44.030Z,15.60
2022-11-18T11:37:32.399Z,15.70
2022-11-18T11:40:11.962Z,15.90
2022-11-18T11:43:17.845Z,15.90
2022-11-18T11:46:11.850Z,15.90
2022-11-18T11:48:44.646Z,15.60
2022-11-18T11:51:23.683Z,15.70
2022-11-18T11:54:02.902Z,15.70
2022-11-18T11:56:44.903Z,15.70
2022-11-18T11:59:20.255Z,15.70
2022-11-18T12:01:56.208Z,15.90
2022-11-18T12:04:36.898Z,16.30
2022-11-18T12:07:06.983Z,16.40
2022-11-18T12:09:33.772Z,16.20
2022-11-18T12:12:34.658Z,16.00
2022-11-18T12:15:39.730Z,16.00
2022-11-18T12:18:21.498Z,16.00
2022-11-18T12:20:53.395Z,15.90
2022-11-18T12:23:32.292Z,15.80
2022-11-18T12:26:02.886Z,15.70
2022-11-18T12:28:45.272Z,15.70
2022-11-18T12:31:18.392Z,15.80
2022-11-18T12:33:58.701Z,16.10
2022-11-18T12:36:30.075Z,16.00
2022-11-18T12:38:57.682Z,16.10
2022-11-18T12:41:57.923Z,16.40
2022-11-18T12:44:29.505Z,16.40
2022-11-18T12:47:01.033Z,16.40
2022-11-18T12:49:27.742Z,16.60
2022-11-18T12:52:02.870Z,16.70
2022-11-18T12:54:38.458Z,16.70
2022-11-18T12:57:19.637Z,16.60
2022-11-18T12:59:46.572Z,16.40
2022-11-18T13:02:21.261Z,16.10
2022-11-18T13:05:27.734Z,15.80
2022-11-18T13:08:13.526Z,15.60
2022-11-18T13:11:14.176Z,15.50
2022-11-18T13:13:42.304Z,15.40
2022-11-18T13:16:38.603Z,15.30
2022-11-18T13:19:05.598Z,15.10
2022-11-18T13:21:50.850Z,15.10
2022-11-18T13:24:20.575Z,15.10
2022-11-18T13:26:53.449Z,15.20
2022-11-18T13:29:26.650Z,15.40
2022-11-18T13:32:24.085Z,15.50
2022-11-18T13:34:53.262Z,15.60
2022-11-18T13:37:23.464Z,15.70
2022-11-18T13:39:50.987Z,15.80
2022-11-18T13:42:21.002Z,15.80
2022-11-18T13:44:59.098Z,15.70
2022-11-18T13:47:50.261Z,15.60
2022-11-18T13:50:32.125Z,15.50
2022-11-18T13:53:13.383Z,15.40
2022-11-18T13:55:48.422Z,15.30
2022-11-18T13:58:18.094Z,15.20
2022-11-18T14:01:15.011Z,15.20
2022-11-18T14:03:44.802Z,15.10
2022-11-18T14:06:11.750Z,15.10
2022-11-18T14:08:39.646Z,15.00
2022-11-18T14:11:07.246Z,15.00
2022-11-18T14:13:37.039Z,14.80
2022-11-18T14:16:23.716Z,14.80
2022-11-18T14:18:51.753Z,14.80
2022-11-18T14:21:38.120Z,14.80
2022-11-18T14:24:05.717Z,14.90
2022-11-18T14:26:37.878Z,14.90
2022-11-18T14:29:22.989Z,14.80
2022-11-18T14:32:11.682Z,14.80
2022-11-18T14:34:38.498Z,14.80
2022-11-18T14:37:12.571Z,14.80
2022-11-18T14:39:40.261Z,14.80
2022-11-18T14:42:12.674Z,14.80
2022-11-18T14:44:39.548Z,14.90
2022-11-18T14:47:27.140Z,14.80
2022-11-18T14:49:53.914Z,14.90
2022-11-18T14:52:20.669Z,15.00
2022-11-18T14:54:47.545Z,14.80
2022-11-18T14:57:17.032Z,14.80
2022-11-18T14:59:43.832Z,14.70
2022-11-18T15:02:16.804Z,14.80
2022-11-18T15:04:44.165Z,14.70
2022-11-18T15:07:22.763Z,14.70
2022-11-18T15:09:50.633Z,14.90
2022-11-18T15:12:17.674Z,14.80
2022-11-18T15:14:44.427Z,14.70
2022-11-18T15:17:12.520Z,14.70
2022-11-18T15:19:40.665Z,14.70
2022-11-18T15:22:07.843Z,14.70
2022-11-18T15:24:34.828Z,14.60
2022-11-18T15:27:05.211Z,14.60
2022-11-18T15:29:32.202Z,14.50
2022-11-18T15:32:00.017Z,14.50
2022-11-18T15:34:26.907Z,14.50
2022-11-18T15:36:53.667Z,14.60
2022-11-18T15:39:20.490Z,14.50
2022-11-18T15:41:47.331Z,14.40
2022-11-18T15:44:14.332Z,14.40
2022-11-18T15:46:41.206Z,14.30
2022-11-18T15:49:11.767Z,14.40
2022-11-18T15:51:40.256Z,14.30
2022-11-18T15:54:06.977Z,14.30
2022-11-18T15:56:34.193Z,14.30
2022-11-18T15:59:12.146Z,14.30
2022-11-18T16:01:47.703Z,14.30
2022-11-18T16:04:17.004Z,14.20
2022-11-18T16:06:44.291Z,14.30
2022-11-18T16:09:12.266Z,14.30
2022-11-18T16:11:58.185Z,14.30
2022-11-18T16:14:25.362Z,14.40
2022-11-18T16:16:54.264Z,14.40
2022-11-18T16:19:24.537Z,14.40
2022-11-18T16:21:53.910Z,14.40
2022-11-18T16:24:26.950Z,14.40
2022-11-18T16:26:54.243Z,14.50
2022-11-18T16:29:21.595Z,14.60
2022-11-18T16:31:52.975Z,14.60
2022-11-18T16:34:25.845Z,14.60
2022-11-18T16:36:54.927Z,14.50
2022-11-18T16:39:24.936Z,14.60
2022-11-18T16:41:53.742Z,14.60
2022-11-18T16:44:20.493Z,14.60
2022-11-18T16:46:53.043Z,14.50
2022-11-18T16:49:23.202Z,14.70
2022-11-18T16:51:52.253Z,14.50
2022-11-18T16:54:20.556Z,14.50
2022-11-18T16:56:48.221Z,14.50
2022-11-18T16:59:21.870Z,14.50
2022-11-18T17:01:50.420Z,14.50
2022-11-18T17:04:18.426Z,14.60
2022-11-18T17:06:46.311Z,14.40
2022-11-18T17:09:19.114Z,14.40
2022-11-18T17:11:46.400Z,14.40
2022-11-18T17:14:13.278Z,14.40
2022-11-18T17:16:40.627Z,14.40
2022-11-18T17:19:11.955Z,14.40
2022-11-18T17:21:39.001Z,14.50
2022-11-18T17:24:06.605Z,14.50
2022-11-18T17:26:33.358Z,14.50
2022-11-18T17:29:00.114Z,14.40
2022-11-18T17:31:26.893Z,14.50
2022-11-18T17:33:55.451Z,14.50
2022-11-18T17:36:24.541Z,14.40
2022-11-18T17:38:53.446Z,14.40
2022-11-18T17:41:42.681Z,14.40
2022-11-18T17:44:11.637Z,14.50
2022-11-18T17:46:38.784Z,14.40
2022-11-18T17:49:17.926Z,14.50
2022-11-18T17:51:48.102Z,14.40
2022-11-18T17:54:15.022Z,14.40
2022-11-18T17:56:41.950Z,14.50
2022-11-18T17:59:09.013Z,14.50
2022-11-18T18:01:35.951Z,14.40
2022-11-18T18:04:03.440Z,14.40
2022-11-18T18:06:30.335Z,14.30
2022-11-18T18:08:58.454Z,14.30
2022-11-18T18:11:26.601Z,14.30
2022-11-18T18:14:12.428Z,14.30
2022-11-18T18:16:47.871Z,14.30
2022-11-18T18:19:22.408Z,14.10
2022-11-18T18:21:49.598Z,14.00
2022-11-18T18:24:18.202Z,14.30
2022-11-18T18:26:45.382Z,14.20
2022-11-18T18:29:12.901Z,14.20
2022-11-18T18:31:39.819Z,14.10
2022-11-18T18:34:06.669Z,14.00
2022-11-18T18:36:33.595Z,13.90
2022-11-18T18:39:01.675Z,13.90
2022-11-18T18:41:28.892Z,13.80
2022-11-18T18:43:56.547Z,13.80
2022-11-18T18:46:36.492Z,13.70
2022-11-18T18:49:06.950Z,13.80
2022-11-18T18:51:55.483Z,13.70
2022-11-18T18:54:22.576Z,13.60
2022-11-18T18:56:49.865Z,13.60
2022-11-18T18:59:16.649Z,13.50
2022-11-18T19:01:43.519Z,13.40
2022-11-18T19:04:13.166Z,13.30
2022-11-18T19:09:28.406Z,13.20
2022-11-18T19:12:14.116Z,13.20
2022-11-18T19:14:40.944Z,13.20
2022-11-18T19:17:12.343Z,13.20
2022-11-18T19:19:59.845Z,13.20
2022-11-18T19:22:30.708Z,13.20
2022-11-18T19:24:58.032Z,13.20
2022-11-18T19:27:25.157Z,13.10
2022-11-18T19:29:51.891Z,13.10
2022-11-18T19:32:18.972Z,13.00
2022-11-18T19:34:46.954Z,13.00
2022-11-18T19:37:13.773Z,12.90
2022-11-18T19:39:40.598Z,12.90
2022-11-18T19:42:07.627Z,12.80
2022-11-18T19:44:34.446Z,12.70
2022-11-18T19:47:01.231Z,12.80
2022-11-18T19:49:27.998Z,12.60
2022-11-18T19:51:54.712Z,12.60
2022-11-18T19:54:21.708Z,12.60
2022-11-18T19:56:48.554Z,12.60
2022-11-18T19:59:15.427Z,12.50
2022-11-18T20:01:42.629Z,12.50
2022-11-18T20:04:09.562Z,12.40
2022-11-18T20:06:37.360Z,12.30
2022-11-18T20:09:07.180Z,12.30
2022-11-18T20:11:34.269Z,12.20
2022-11-18T20:14:01.229Z,12.30
2022-11-18T20:16:28.209Z,12.10
2022-11-18T20:18:56.955Z,12.00
2022-11-18T20:21:24.663Z,12.00
2022-11-18T20:23:54.399Z,11.90
2022-11-18T20:26:23.406Z,12.00
2022-11-18T20:28:54.442Z,11.80
2022-11-18T20:31:24.323Z,11.80
2022-11-18T20:33:52.529Z,11.80
2022-11-18T20:36:24.288Z,11.70
2022-11-18T20:38:53.934Z,11.70
2022-11-18T20:41:21.860Z,11.70
2022-11-18T20:43:49.107Z,11.70
2022-11-18T20:46:20.780Z,11.60
2022-11-18T20:48:49.002Z,11.40
2022-11-18T20:51:18.776Z,11.30
2022-11-18T20:53:45.729Z,11.20
2022-11-18T20:56:15.233Z,11.20
2022-11-18T20:58:42.279Z,11.10
2022-11-18T21:01:24.194Z,11.10
2022-11-18T21:03:53.955Z,11.00
2022-11-18T21:06:22.714Z,10.90
2022-11-18T21:08:53.925Z,10.90
2022-11-18T21:11:20.626Z,10.90
2022-11-18T21:14:06.025Z,10.80
2022-11-18T21:16:32.767Z,10.70
2022-11-18T21:18:59.555Z,10.60
2022-11-18T21:21:44.722Z,10.60
2022-11-18T21:24:13.904Z,10.60
2022-11-18T21:26:41.303Z,10.60
2022-11-18T21:29:10.064Z,10.50
2022-11-18T21:31:37.732Z,10.50
2022-11-18T21:34:05.137Z,10.50
2022-11-18T21:36:32.321Z,10.40
2022-11-18T21:39:00.237Z,10.30
2022-11-18T21:41:28.902Z,10.30
2022-11-18T21:44:05.904Z,10.20
2022-11-18T21:46:34.200Z,10.20
2022-11-18T21:49:00.982Z,10.20
2022-11-18T21:51:27.859Z,10.20
2022-11-18T21:53:54.947Z,10.20
2022-11-18T21:56:24.988Z,10.20
2022-11-18T21:58:52.835Z,10.30
2022-11-18T22:01:21.684Z,10.30
2022-11-18T22:03:55.543Z,10.30
2022-11-18T22:06:24.588Z,10.30
2022-11-18T22:08:52.204Z,10.30
2022-11-18T22:11:23.358Z,10.20
2022-11-18T22:13:51.815Z,10.20
2022-11-18T22:16:20.346Z,10.30
2022-11-18T22:18:54.765Z,10.30
2022-11-18T22:21:23.409Z,10.30
2022-11-18T22:23:50.334Z,10.20
2022-11-18T22:26:19.369Z,10.10
2022-11-18T22:28:47.366Z,10.00
2022-11-18T22:31:20.508Z,10.00
2022-11-18T22:33:48.558Z,9.90
2022-11-18T22:36:16.962Z,9.90
2022-11-18T22:38:44.720Z,9.80
2022-11-18T22:41:33.937Z,9.80
2022-11-18T22:44:06.925Z,9.80
2022-11-18T22:46:35.839Z,9.90
2022-11-18T22:49:02.925Z,9.80
2022-11-18T22:51:29.630Z,9.80
2022-11-18T22:54:15.944Z,9.80
2022-11-18T22:56:43.321Z,9.80
2022-11-18T22:59:13.253Z,9.90
2022-11-18T23:01:40.468Z,9.90
2022-11-18T23:04:07.372Z,9.90
2022-11-18T23:06:34.203Z,9.90
2022-11-18T23:09:01.110Z,9.80
2022-11-18T23:11:46.989Z,9.80
2022-11-18T23:14:13.682Z,9.80
2022-11-18T23:16:42.649Z,9.70
2022-11-18T23:19:14.890Z,9.70
2022-11-18T23:21:42.472Z,9.70
2022-11-18T23:24:17.514Z,9.70
2022-11-18T23:26:44.997Z,9.70
2022-11-18T23:29:13.082Z,9.70
2022-11-18T23:31:44.362Z,9.60
2022-11-18T23:34:13.036Z,9.60
2022-11-18T23:36:40.372Z,9.60
2022-11-18T23:39:07.846Z,9.60
2022-11-18T23:41:34.958Z,9.60
2022-11-18T23:44:02.153Z,9.70
2022-11-18T23:46:29.052Z,9.60
2022-11-18T23:48:55.830Z,9.60
2022-11-18T23:51:24.518Z,9.70
2022-11-18T23:53:54.033Z,9.70
2022-11-18T23:56:23.132Z,9.70
2022-11-18T23:58:52.422Z,9.70
